createdAt,value
2023-02-17T00:01:26.531Z,6.47
2023-02-17T00:03:53.624Z,6.70
2023-02-17T00:06:27.828Z,6.57
2023-02-17T00:08:55.344Z,5.60
2023-02-17T00:11:22.493Z,9.48
2023-02-17T00:13:49.682Z,6.60
2023-02-17T00:16:22.981Z,7.32
2023-02-17T00:18:56.061Z,6.97
2023-02-17T00:21:25.087Z,8.18
2023-02-17T00:23:53.257Z,5.60
2023-02-17T00:26:23.564Z,7.00
2023-02-17T00:28:50.981Z,6.60
2023-02-17T00:31:21.914Z,6.97
2023-02-17T00:33:49.293Z,6.43
2023-02-17T00:36:20.835Z,5.85
2023-02-17T00:38:49.476Z,6.45
2023-02-17T00:41:19.605Z,6.35
2023-02-17T00:43:47.658Z,6.43
2023-02-17T00:46:15.685Z,6.38
2023-02-17T00:48:42.584Z,5.45
2023-02-17T00:51:10.337Z,5.75
2023-02-17T00:53:37.513Z,5.35
2023-02-17T00:56:05.734Z,5.28
2023-02-17T00:58:32.802Z,7.35
2023-02-17T01:00:59.726Z,6.50
2023-02-17T01:03:27.664Z,8.40
2023-02-17T01:05:56.012Z,6.93
2023-02-17T01:08:23.565Z,7.03
2023-02-17T01:10:51.387Z,6.47
2023-02-17T01:13:19.504Z,5.93
2023-02-17T01:15:50.613Z,8.18
2023-02-17T01:18:20.295Z,6.50
2023-02-17T01:20:47.133Z,5.88
2023-02-17T01:23:14.684Z,4.95
2023-02-17T01:25:44.945Z,7.00
2023-02-17T01:28:17.987Z,6.00
2023-02-17T01:33:11.669Z,5.18
2023-02-17T01:35:38.466Z,5.32
2023-02-17T01:38:05.285Z,5.07
2023-02-17T01:40:32.117Z,5.80
2023-02-17T01:42:58.905Z,6.55
2023-02-17T01:45:35.817Z,6.22
2023-02-17T01:48:15.097Z,5.82
2023-02-17T01:51:02.855Z,4.88
2023-02-17T01:53:44.860Z,5.95
2023-02-17T01:56:13.500Z,7.18
2023-02-17T01:58:46.241Z,5.45
2023-02-17T02:01:13.492Z,5.47
2023-02-17T02:03:40.598Z,6.55
2023-02-17T02:06:17.299Z,5.10
2023-02-17T02:08:57.185Z,5.40
2023-02-17T02:11:23.948Z,7.07
2023-02-17T02:13:51.448Z,4.75
2023-02-17T02:17:38.624Z,5.45
2023-02-17T02:20:41.456Z,5.13
2023-02-17T02:23:46.183Z,5.40
2023-02-17T02:26:43.213Z,4.57
2023-02-17T02:29:49.687Z,4.95
2023-02-17T02:32:44.256Z,4.38
2023-02-17T02:35:22.110Z,6.10
2023-02-17T02:38:16.732Z,4.95
2023-02-17T02:41:14.802Z,4.45
2023-02-17T02:43:42.773Z,6.03
2023-02-17T02:46:10.446Z,6.75
2023-02-17T02:48:38.280Z,5.45
2023-02-17T02:51:12.933Z,5.40
2023-02-17T02:54:18.465Z,5.82
2023-02-17T02:57:24.635Z,5.40
2023-02-17T03:00:16.401Z,6.57
2023-02-17T03:03:05.726Z,4.97
2023-02-17T03:05:39.317Z,5.03
2023-02-17T03:08:32.250Z,4.78
2023-02-17T03:10:58.990Z,5.20
2023-02-17T03:13:25.798Z,5.35
2023-02-17T03:15:52.903Z,5.28
2023-02-17T03:18:20.192Z,4.30
2023-02-17T03:20:57.265Z,5.15
2023-02-17T03:23:24.001Z,6.53
2023-02-17T03:25:50.788Z,5.50
2023-02-17T03:28:18.692Z,3.92
2023-02-17T03:30:45.535Z,5.03
2023-02-17T03:33:12.351Z,5.30
2023-02-17T03:35:39.052Z,5.07
2023-02-17T03:38:05.880Z,5.53
2023-02-17T03:40:32.654Z,5.78
2023-02-17T03:42:59.452Z,5.90
2023-02-17T03:45:26.209Z,6.40
2023-02-17T03:47:53.041Z,5.15
2023-02-17T03:50:19.788Z,5.80
2023-02-17T03:52:46.647Z,4.72
2023-02-17T03:55:13.658Z,5.43
2023-02-17T03:57:40.489Z,4.57
2023-02-17T04:00:08.532Z,4.85
2023-02-17T04:02:35.553Z,4.43
2023-02-17T04:05:02.648Z,4.25
2023-02-17T04:07:29.542Z,5.10
2023-02-17T04:09:56.308Z,4.30
2023-02-17T04:12:23.070Z,4.50
2023-02-17T04:14:49.860Z,3.90
2023-02-17T04:17:16.625Z,4.13
2023-02-17T04:19:43.345Z,5.32
2023-02-17T04:22:10.198Z,6.20
2023-02-17T04:24:37.394Z,6.50
2023-02-17T04:27:05.545Z,5.22
2023-02-17T04:29:33.665Z,5.15
2023-02-17T04:32:00.483Z,5.38
2023-02-17T04:34:27.290Z,4.70
2023-02-17T04:36:54.161Z,5.22
2023-02-17T04:39:21.125Z,4.85
2023-02-17T04:41:47.874Z,4.90
2023-02-17T04:44:14.610Z,3.53
2023-02-17T04:46:41.414Z,4.20
2023-02-17T04:49:08.157Z,6.25
2023-02-17T04:51:34.919Z,3.63
2023-02-17T04:54:01.678Z,4.40
2023-02-17T04:56:28.457Z,4.15
2023-02-17T04:58:55.201Z,4.63
2023-02-17T05:01:22.017Z,4.38
2023-02-17T05:03:48.857Z,4.57
2023-02-17T05:06:15.757Z,5.68
2023-02-17T05:08:42.524Z,5.95
2023-02-17T05:11:09.300Z,3.97
2023-02-17T05:13:36.033Z,5.03
2023-02-17T05:16:02.883Z,5.55
2023-02-17T05:18:29.650Z,4.00
2023-02-17T05:20:56.364Z,5.72
2023-02-17T05:23:23.542Z,5.28
2023-02-17T05:25:50.285Z,5.00
2023-02-17T05:28:17.041Z,5.88
2023-02-17T05:30:43.766Z,5.00
2023-02-17T05:33:10.523Z,4.60
2023-02-17T05:35:37.339Z,5.80
2023-02-17T05:38:04.118Z,6.15
2023-02-17T05:40:30.977Z,5.13
2023-02-17T05:42:57.698Z,5.55
2023-02-17T05:45:24.515Z,5.75
2023-02-17T05:47:51.236Z,6.63
2023-02-17T05:50:18.065Z,7.22
2023-02-17T05:52:44.813Z,7.57
2023-02-17T05:55:11.577Z,6.95
2023-02-17T05:57:38.340Z,6.25
2023-02-17T06:00:06.346Z,4.72
2023-02-17T06:02:33.084Z,7.65
2023-02-17T06:04:59.907Z,6.82
2023-02-17T06:07:26.725Z,6.32
2023-02-17T06:09:53.496Z,7.95
2023-02-17T06:12:20.210Z,6.40
2023-02-17T06:14:46.951Z,5.93
2023-02-17T06:17:13.693Z,7.68
2023-02-17T06:19:40.458Z,7.38
2023-02-17T06:22:07.265Z,7.25
2023-02-17T06:24:33.989Z,6.15
2023-02-17T06:27:01.881Z,6.68
2023-02-17T06:29:28.832Z,6.20
2023-02-17T06:31:55.672Z,5.63
2023-02-17T06:34:22.871Z,6.13
2023-02-17T06:36:49.831Z,5.85
2023-02-17T06:39:16.537Z,7.72
2023-02-17T06:41:43.280Z,7.07
2023-02-17T06:44:10.011Z,5.47
2023-02-17T06:46:36.845Z,6.40
2023-02-17T06:49:03.646Z,5.80
2023-02-17T06:51:30.701Z,5.88
2023-02-17T06:53:57.712Z,5.35
2023-02-17T06:56:24.650Z,7.20
2023-02-17T06:58:51.577Z,6.53
2023-02-17T07:01:21.854Z,11.75
2023-02-17T07:03:48.832Z,11.68
2023-02-17T07:06:15.621Z,10.70
2023-02-17T07:08:42.378Z,9.20
2023-02-17T07:11:12.584Z,8.18
2023-02-17T07:13:41.087Z,7.80
2023-02-17T07:16:09.710Z,6.00
2023-02-17T07:18:37.920Z,7.50
2023-02-17T07:21:07.274Z,8.80
2023-02-17T07:23:33.999Z,11.88
2023-02-17T07:26:06.782Z,16.10
2023-02-17T07:28:33.691Z,14.02
2023-02-17T07:31:08.619Z,12.40
2023-02-17T07:33:36.296Z,11.88
2023-02-17T07:36:12.741Z,9.93
2023-02-17T07:38:40.614Z,7.47
2023-02-17T07:41:14.194Z,7.15
2023-02-17T07:43:41.586Z,5.78
2023-02-17T07:46:10.405Z,4.55
2023-02-17T07:48:37.761Z,5.05
2023-02-17T07:51:09.773Z,4.53
2023-02-17T07:53:37.350Z,5.27
2023-02-17T07:56:10.519Z,5.72
2023-02-17T07:58:40.019Z,6.47
2023-02-17T08:01:22.706Z,5.50
2023-02-17T08:03:50.784Z,6.85
2023-02-17T08:06:21.120Z,6.32
2023-02-17T08:09:08.556Z,7.85
2023-02-17T08:11:54.813Z,4.68
2023-02-17T08:14:23.888Z,5.75
2023-02-17T08:16:50.834Z,5.85
2023-02-17T08:19:17.778Z,6.07
2023-02-17T08:21:45.077Z,7.93
2023-02-17T08:24:12.469Z,7.35
2023-02-17T08:26:39.696Z,8.38
2023-02-17T08:29:47.434Z,8.80
2023-02-17T08:32:16.601Z,11.10
2023-02-17T08:34:43.738Z,11.18
2023-02-17T08:37:11.635Z,8.68
2023-02-17T08:39:38.755Z,9.88
2023-02-17T08:42:06.191Z,9.70
2023-02-17T08:44:36.159Z,9.35
2023-02-17T08:47:05.226Z,5.93
2023-02-17T08:49:33.004Z,5.97
2023-02-17T08:52:00.523Z,5.55
2023-02-17T08:54:27.856Z,4.40
2023-02-17T08:56:54.670Z,2.55
2023-02-17T08:59:21.703Z,3.72
2023-02-17T09:01:48.703Z,1.55
2023-02-17T09:04:16.370Z,2.10
2023-02-17T09:06:50.280Z,1.70
2023-02-17T09:09:22.522Z,2.50
2023-02-17T09:11:49.747Z,1.70
2023-02-17T09:14:16.658Z,1.80
2023-02-17T09:16:43.509Z,1.30
2023-02-17T09:19:10.310Z,1.40
2023-02-17T09:21:37.180Z,1.30
2023-02-17T09:24:04.305Z,1.45
2023-02-17T09:26:31.068Z,1.63
2023-02-17T09:28:58.153Z,1.73
2023-02-17T09:31:27.145Z,2.00
2023-02-17T09:33:54.587Z,1.15
2023-02-17T09:36:27.522Z,1.15
2023-02-17T09:41:41.867Z,0.70
2023-02-17T09:44:21.144Z,0.77
2023-02-17T09:47:03.718Z,1.20
2023-02-17T09:49:46.050Z,1.55
2023-02-17T09:52:14.118Z,1.20
2023-02-17T09:54:46.886Z,1.67
2023-02-17T09:57:20.833Z,1.52
2023-02-17T09:59:59.127Z,1.50
2023-02-17T10:02:41.449Z,0.90
2023-02-17T10:05:15.382Z,1.67
2023-02-17T10:07:51.266Z,0.82
2023-02-17T10:10:31.840Z,1.08
2023-02-17T10:13:02.981Z,1.02
2023-02-17T10:15:36.058Z,1.08
2023-02-17T10:21:00.955Z,1.05
2023-02-17T10:23:30.025Z,1.27
2023-02-17T10:26:09.434Z,1.00
2023-02-17T10:28:47.442Z,1.33
2023-02-17T10:31:36.160Z,1.25
2023-02-17T10:34:06.088Z,1.02
2023-02-17T10:36:57.442Z,0.70
2023-02-17T10:39:52.378Z,1.05
2023-02-17T10:42:32.638Z,0.90
2023-02-17T10:45:05.564Z,0.50
2023-02-17T10:47:35.764Z,1.13
2023-02-17T10:50:05.818Z,0.63
2023-02-17T10:52:41.188Z,0.40
2023-02-17T10:55:41.552Z,0.70
2023-02-17T10:58:19.961Z,0.65
2023-02-17T11:00:50.263Z,0.47
2023-02-17T11:03:21.774Z,0.70
2023-02-17T11:05:58.468Z,1.10
2023-02-17T11:08:41.849Z,1.00
2023-02-17T11:11:20.203Z,0.60
2023-02-17T11:14:18.208Z,1.48
2023-02-17T11:16:49.302Z,1.50
2023-02-17T11:19:29.639Z,3.40
2023-02-17T11:21:59.339Z,1.92
2023-02-17T11:24:28.118Z,0.88
2023-02-17T11:27:10.346Z,1.13
2023-02-17T11:29:37.641Z,1.33
2023-02-17T11:32:09.168Z,1.15
2023-02-17T11:34:39.605Z,1.30
2023-02-17T11:37:09.340Z,0.63
2023-02-17T11:39:45.423Z,0.40
2023-02-17T11:42:33.331Z,0.50
2023-02-17T11:45:17.749Z,1.25
2023-02-17T11:48:19.117Z,0.82
2023-02-17T11:51:21.251Z,0.57
2023-02-17T11:54:31.568Z,0.40
2023-02-17T11:57:45.405Z,0.28
2023-02-17T12:00:24.319Z,0.30
2023-02-17T12:03:41.019Z,0.32
2023-02-17T12:06:15.273Z,0.35
2023-02-17T12:09:27.784Z,0.30
2023-02-17T12:12:34.756Z,0.50
2023-02-17T12:15:38.558Z,0.55
2023-02-17T12:20:51.936Z,0.23
2023-02-17T12:23:34.032Z,0.22
2023-02-17T12:26:26.160Z,0.22
2023-02-17T12:29:24.345Z,0.40
2023-02-17T12:32:10.015Z,0.90
2023-02-17T12:34:55.258Z,0.80
2023-02-17T12:37:34.560Z,1.08
2023-02-17T12:40:23.534Z,3.08
2023-02-17T12:43:07.079Z,1.95
2023-02-17T12:45:41.837Z,2.10
2023-02-17T12:48:38.509Z,2.17
2023-02-17T12:51:26.545Z,1.08
2023-02-17T12:54:14.962Z,1.35
2023-02-17T12:57:06.356Z,1.45
2023-02-17T12:59:46.033Z,0.40
2023-02-17T13:02:16.592Z,0.50
2023-02-17T13:04:52.006Z,0.80
2023-02-17T13:07:49.877Z,0.40
2023-02-17T13:10:37.785Z,1.08
2023-02-17T13:13:30.309Z,0.90
2023-02-17T13:16:12.298Z,0.47
2023-02-17T13:18:44.297Z,0.40
2023-02-17T13:21:24.908Z,1.50
2023-02-17T13:24:13.244Z,1.10
2023-02-17T13:26:44.796Z,0.73
2023-02-17T13:29:33.895Z,0.47
2023-02-17T13:32:06.084Z,0.20
2023-02-17T13:34:45.099Z,0.38
2023-02-17T13:37:33.772Z,2.95
2023-02-17T13:40:03.960Z,0.40
2023-02-17T13:42:44.430Z,0.40
2023-02-17T13:45:34.509Z,0.30
2023-02-17T13:48:33.040Z,1.33
2023-02-17T13:51:09.964Z,0.85
2023-02-17T13:53:41.326Z,0.50
2023-02-17T13:56:30.168Z,0.30
2023-02-17T13:59:19.345Z,0.57
2023-02-17T14:01:47.625Z,0.22
2023-02-17T14:04:28.455Z,1.85
2023-02-17T14:06:59.541Z,0.80
2023-02-17T14:09:30.889Z,0.75
2023-02-17T14:12:02.096Z,0.60
2023-02-17T14:14:32.876Z,0.57
2023-02-17T14:17:27.724Z,0.30
2023-02-17T14:19:54.541Z,3.50
2023-02-17T14:22:28.815Z,6.10
2023-02-17T14:25:27.211Z,1.08
2023-02-17T14:27:54.049Z,0.90
2023-02-17T14:30:38.451Z,0.70
2023-02-17T14:33:17.879Z,0.60
2023-02-17T14:35:54.819Z,1.40
2023-02-17T14:38:35.353Z,0.82
2023-02-17T14:41:06.846Z,0.40
2023-02-17T14:43:33.769Z,1.10
2023-02-17T14:46:00.653Z,0.73
2023-02-17T14:48:28.301Z,1.05
2023-02-17T14:50:57.606Z,0.70
2023-02-17T14:53:32.873Z,0.40
2023-02-17T14:56:04.633Z,0.40
2023-02-17T14:58:31.807Z,0.40
2023-02-17T15:00:59.519Z,0.50
2023-02-17T15:03:26.703Z,0.88
2023-02-17T15:05:54.213Z,1.02
2023-02-17T15:08:27.470Z,0.88
2023-02-17T15:10:55.325Z,1.90
2023-02-17T15:13:22.345Z,0.90
2023-02-17T15:15:49.826Z,0.80
2023-02-17T15:18:19.289Z,1.13
2023-02-17T15:20:50.472Z,0.50
2023-02-17T15:23:21.483Z,2.38
2023-02-17T15:25:48.861Z,2.00
2023-02-17T15:28:19.467Z,0.88
2023-02-17T15:30:51.913Z,0.60
2023-02-17T15:33:20.825Z,1.80
2023-02-17T15:35:53.657Z,2.25
2023-02-17T15:38:21.145Z,1.23
2023-02-17T15:40:47.935Z,1.45
2023-02-17T15:43:21.915Z,1.58
2023-02-17T15:45:49.354Z,1.15
2023-02-17T15:48:30.244Z,1.33
2023-02-17T15:50:57.037Z,0.85
2023-02-17T15:53:23.868Z,0.60
2023-02-17T15:55:52.428Z,0.47
2023-02-17T15:58:22.012Z,0.55
2023-02-17T16:00:50.484Z,0.20
2023-02-17T16:03:18.120Z,0.40
2023-02-17T16:05:45.044Z,0.50
2023-02-17T16:08:12.076Z,0.63
2023-02-17T16:10:42.218Z,0.40
2023-02-17T16:13:14.752Z,0.68
2023-02-17T16:15:42.515Z,0.82
2023-02-17T16:18:21.708Z,0.60
2023-02-17T16:20:50.376Z,0.68
2023-02-17T16:23:17.701Z,0.30
2023-02-17T16:25:46.460Z,0.47
2023-02-17T16:28:20.544Z,0.50
2023-02-17T16:30:49.577Z,0.75
2023-02-17T16:33:17.603Z,1.35
2023-02-17T16:35:44.979Z,0.60
2023-02-17T16:38:22.657Z,0.63
2023-02-17T16:40:52.380Z,1.00
2023-02-17T16:43:23.841Z,1.20
2023-02-17T16:45:58.442Z,1.05
2023-02-17T16:48:29.305Z,1.10
2023-02-17T16:50:56.629Z,0.50
2023-02-17T16:53:23.608Z,0.80
2023-02-17T16:55:53.276Z,0.68
2023-02-17T16:58:27.724Z,0.75
2023-02-17T17:00:56.237Z,0.82
2023-02-17T17:03:23.377Z,1.65
2023-02-17T17:05:52.378Z,1.23
2023-02-17T17:08:21.573Z,0.80
2023-02-17T17:10:49.528Z,1.17
2023-02-17T17:13:16.498Z,1.75
2023-02-17T17:15:45.350Z,1.70
2023-02-17T17:18:21.508Z,2.30
2023-02-17T17:20:49.001Z,4.68
2023-02-17T17:23:16.816Z,4.72
2023-02-17T17:25:47.012Z,6.00
2023-02-17T17:28:17.397Z,6.07
2023-02-17T17:30:44.704Z,8.90
2023-02-17T17:33:11.603Z,14.93
2023-02-17T17:35:38.497Z,5.53
2023-02-17T17:38:06.034Z,5.43
2023-02-17T17:40:48.555Z,6.80
2023-02-17T17:43:17.465Z,4.85
2023-02-17T17:45:44.319Z,6.22
2023-02-17T17:48:15.731Z,8.18
2023-02-17T17:50:43.479Z,6.45
2023-02-17T17:53:10.597Z,4.57
2023-02-17T17:55:37.663Z,4.53
2023-02-17T17:58:04.506Z,1.77
2023-02-17T18:00:31.640Z,2.30
2023-02-17T18:02:58.373Z,1.33
2023-02-17T18:05:25.390Z,2.28
2023-02-17T18:07:52.395Z,2.78
2023-02-17T18:10:19.362Z,3.08
2023-02-17T18:12:47.601Z,7.03
2023-02-17T18:15:15.970Z,5.05
2023-02-17T18:17:44.510Z,2.40
2023-02-17T18:20:12.581Z,1.90
2023-02-17T18:22:40.162Z,1.70
2023-02-17T18:25:08.324Z,1.52
2023-02-17T18:27:44.600Z,1.98
2023-02-17T18:30:20.366Z,2.00
2023-02-17T18:32:48.121Z,1.70
2023-02-17T18:35:15.849Z,1.88
2023-02-17T18:37:43.415Z,1.25
2023-02-17T18:40:15.130Z,1.67
2023-02-17T18:42:45.531Z,1.52
2023-02-17T18:45:13.121Z,2.13
2023-02-17T18:47:39.912Z,2.30
2023-02-17T18:50:08.546Z,2.00
2023-02-17T18:52:38.489Z,1.48
2023-02-17T18:55:06.395Z,1.98
2023-02-17T18:57:34.210Z,2.63
2023-02-17T19:00:00.972Z,1.98
2023-02-17T19:02:27.858Z,1.45
2023-02-17T19:04:55.314Z,1.60
2023-02-17T19:07:23.220Z,2.10
2023-02-17T19:09:51.763Z,1.73
2023-02-17T19:12:19.009Z,1.63
2023-02-17T19:14:46.116Z,2.38
2023-02-17T19:17:12.992Z,1.90
2023-02-17T19:19:41.038Z,1.85
2023-02-17T19:22:08.893Z,1.52
2023-02-17T19:24:36.872Z,1.38
2023-02-17T19:27:04.265Z,1.85
2023-02-17T19:29:31.293Z,1.40
2023-02-17T19:31:59.601Z,2.08
2023-02-17T19:34:27.598Z,3.03
2023-02-17T19:36:55.360Z,2.28
2023-02-17T19:39:22.134Z,2.90
2023-02-17T19:41:49.052Z,2.42
2023-02-17T19:44:15.816Z,3.70
2023-02-17T19:46:42.586Z,6.72
2023-02-17T19:49:09.364Z,7.53
2023-02-17T19:51:36.082Z,6.03
2023-02-17T19:54:02.912Z,3.90
2023-02-17T19:56:33.006Z,4.70
2023-02-17T19:59:00.244Z,4.88
2023-02-17T20:01:30.543Z,4.20
2023-02-17T20:03:59.092Z,3.72
2023-02-17T20:06:33.622Z,2.67
2023-02-17T20:09:07.742Z,2.00
2023-02-17T20:11:34.636Z,4.13
2023-02-17T20:14:02.588Z,4.10
2023-02-17T20:16:29.878Z,4.53
2023-02-17T20:18:56.849Z,21.27
2023-02-17T20:21:28.223Z,22.55
2023-02-17T20:23:55.385Z,25.17
2023-02-17T20:26:26.393Z,16.75
2023-02-17T20:28:53.330Z,25.85
2023-02-17T20:31:20.669Z,26.67
2023-02-17T20:33:48.315Z,23.92
2023-02-17T20:36:15.408Z,31.67
2023-02-17T20:38:42.374Z,19.92
2023-02-17T20:41:14.198Z,6.70
2023-02-17T20:43:41.321Z,4.43
2023-02-17T20:46:14.223Z,9.70
2023-02-17T20:51:07.712Z,9.35
2023-02-17T20:53:34.443Z,4.70
2023-02-17T20:56:01.326Z,9.55
2023-02-17T20:58:28.206Z,4.38
2023-02-17T21:00:55.018Z,3.05
2023-02-17T21:03:21.959Z,2.10
2023-02-17T21:05:49.213Z,2.10
2023-02-17T21:08:15.940Z,2.13
2023-02-17T21:10:42.730Z,4.40
2023-02-17T21:13:09.506Z,4.65
2023-02-17T21:15:36.331Z,3.90
2023-02-17T21:18:03.176Z,3.00
2023-02-17T21:20:29.958Z,2.80
2023-02-17T21:22:56.703Z,3.22
2023-02-17T21:25:23.738Z,3.20
2023-02-17T21:27:50.484Z,1.60
2023-02-17T21:30:17.300Z,2.65
2023-02-17T21:32:44.190Z,1.27
2023-02-17T21:35:11.447Z,10.30
2023-02-17T21:37:39.103Z,32.88
2023-02-17T21:40:07.978Z,5.10
2023-02-17T21:42:56.340Z,14.32
2023-02-17T21:45:24.124Z,2.28
2023-02-17T21:47:51.527Z,2.53
2023-02-17T21:50:19.553Z,6.25
2023-02-17T21:52:46.389Z,1.88
2023-02-17T21:55:13.330Z,3.63
2023-02-17T21:57:40.065Z,2.50
2023-02-17T22:00:08.936Z,0.90
2023-02-17T22:02:36.642Z,2.38
2023-02-17T22:05:04.196Z,2.88
2023-02-17T22:07:30.938Z,1.95
2023-02-17T22:09:59.474Z,2.03
2023-02-17T22:12:26.358Z,2.50
2023-02-17T22:14:53.082Z,2.85
2023-02-17T22:17:19.997Z,0.80
2023-02-17T22:19:46.744Z,2.05
2023-02-17T22:22:13.542Z,1.30
2023-02-17T22:24:40.249Z,0.68
2023-02-17T22:27:07.048Z,1.20
2023-02-17T22:29:33.811Z,1.05
2023-02-17T22:32:00.790Z,1.23
2023-02-17T22:34:28.848Z,1.30
2023-02-17T22:36:55.641Z,1.27
2023-02-17T22:39:22.459Z,0.80
2023-02-17T22:41:49.294Z,0.82
2023-02-17T22:44:16.066Z,0.75
2023-02-17T22:46:42.853Z,1.30
2023-02-17T22:49:09.687Z,1.00
2023-02-17T22:51:39.374Z,0.55
2023-02-17T22:54:07.569Z,0.85
2023-02-17T22:56:34.548Z,0.70
2023-02-17T22:59:03.921Z,0.75
2023-02-17T23:01:33.984Z,0.90
2023-02-17T23:04:01.517Z,0.90
2023-02-17T23:06:35.796Z,0.70
2023-02-17T23:09:04.211Z,0.90
2023-02-17T23:11:49.952Z,1.23
2023-02-17T23:14:38.595Z,0.70
2023-02-17T23:17:12.629Z,1.23
2023-02-17T23:19:41.554Z,0.85
2023-02-17T23:22:14.640Z,1.00
2023-02-17T23:24:42.788Z,0.70
2023-02-17T23:27:09.793Z,0.80
2023-02-17T23:29:38.149Z,0.95
2023-02-17T23:32:05.171Z,0.70
2023-02-17T23:34:32.541Z,0.70
2023-02-17T23:36:59.808Z,0.60
2023-02-17T23:39:27.187Z,1.48
2023-02-17T23:41:53.949Z,1.20
2023-02-17T23:44:20.722Z,0.88
2023-02-17T23:46:47.888Z,0.85
2023-02-17T23:49:17.145Z,1.10
2023-02-17T23:51:45.257Z,0.65
2023-02-17T23:54:12.268Z,1.10
2023-02-17T23:56:39.401Z,1.00
2023-02-17T23:59:06.547Z,1.30
